createdAt,value
2019-02-12T00:00:30.167Z,25.03
2019-02-12T00:02:34.911Z,23.57
2019-02-12T00:04:40.015Z,19.63
2019-02-12T00:06:44.761Z,21.13
2019-02-12T00:08:49.831Z,16.80
2019-02-12T00:10:54.684Z,20.37
2019-02-12T00:13:00.171Z,22.00
2019-02-12T00:15:05.205Z,20.33
2019-02-12T00:17:10.161Z,13.37
2019-02-12T00:19:16.159Z,20.93
2019-02-12T00:21:21.165Z,18.70
2019-02-12T00:23:26.045Z,18.17
2019-02-12T00:25:30.972Z,16.57
2019-02-12T00:27:36.103Z,22.77
2019-02-12T00:29:40.883Z,34.73
2019-02-12T00:31:45.692Z,17.90
2019-02-12T00:33:50.531Z,16.07
2019-02-12T00:35:55.525Z,10.83
2019-02-12T00:38:01.558Z,23.50
2019-02-12T00:40:07.574Z,24.73
2019-02-12T00:42:12.513Z,22.70
2019-02-12T00:44:18.038Z,19.80
2019-02-12T00:46:23.027Z,17.10
2019-02-12T00:48:28.173Z,21.50
2019-02-12T00:50:33.467Z,19.53
2019-02-12T00:52:39.194Z,23.63
2019-02-12T00:54:44.327Z,26.10
2019-02-12T00:56:49.150Z,17.00
2019-02-12T00:58:53.880Z,26.37
2019-02-12T01:00:58.674Z,19.30
2019-02-12T01:03:03.415Z,22.10
2019-02-12T01:05:08.311Z,33.57
2019-02-12T01:07:13.092Z,22.10
2019-02-12T01:09:17.833Z,22.10
2019-02-12T01:11:25.671Z,23.43
2019-02-12T01:13:30.880Z,15.87
2019-02-12T01:15:35.760Z,25.53
2019-02-12T01:17:40.561Z,18.93
2019-02-12T01:19:45.284Z,34.40
2019-02-12T01:21:49.993Z,17.80
2019-02-12T01:23:54.808Z,17.93
2019-02-12T01:25:59.700Z,16.27
2019-02-12T01:28:04.474Z,20.57
2019-02-12T01:30:12.502Z,21.67
2019-02-12T01:32:17.608Z,23.40
2019-02-12T01:34:22.380Z,22.90
2019-02-12T01:36:27.151Z,22.53
2019-02-12T01:38:32.107Z,17.20
2019-02-12T01:40:36.837Z,37.23
2019-02-12T01:42:41.988Z,21.73
2019-02-12T01:44:46.823Z,16.13
2019-02-12T01:46:52.016Z,20.70
2019-02-12T01:48:56.706Z,26.60
2019-02-12T01:51:01.661Z,27.70
2019-02-12T01:53:06.444Z,18.53
2019-02-12T01:55:11.249Z,24.03
2019-02-12T01:57:16.043Z,30.07
2019-02-12T01:59:20.839Z,23.80
2019-02-12T02:01:26.517Z,17.50
2019-02-12T02:03:31.316Z,21.40
2019-02-12T02:05:36.166Z,40.60
2019-02-12T02:07:40.897Z,22.73
2019-02-12T02:09:45.623Z,26.60
2019-02-12T02:11:50.376Z,23.90
2019-02-12T02:13:55.520Z,18.37
2019-02-12T02:16:00.655Z,17.77
2019-02-12T02:18:05.377Z,17.10
2019-02-12T02:20:10.765Z,24.00
2019-02-12T02:22:16.694Z,19.30
2019-02-12T02:24:21.806Z,19.90
2019-02-12T02:26:26.635Z,19.10
2019-02-12T02:28:31.400Z,24.03
2019-02-12T02:30:36.127Z,20.73
2019-02-12T02:32:41.240Z,23.47
2019-02-12T02:34:46.013Z,30.63
2019-02-12T02:36:51.173Z,15.70
2019-02-12T02:38:55.888Z,25.93
2019-02-12T02:41:00.633Z,29.33
2019-02-12T02:43:05.406Z,23.97
2019-02-12T02:45:11.213Z,18.50
2019-02-12T02:47:16.775Z,27.87
2019-02-12T02:49:21.905Z,29.23
2019-02-12T02:51:26.655Z,26.43
2019-02-12T02:53:31.407Z,21.53
2019-02-12T02:55:36.502Z,30.40
2019-02-12T02:57:41.256Z,23.30
2019-02-12T02:59:46.207Z,25.40
2019-02-12T03:01:51.604Z,32.87
2019-02-12T03:03:56.771Z,22.83
2019-02-12T03:06:01.832Z,21.73
2019-02-12T03:08:06.568Z,32.73
2019-02-12T03:10:12.016Z,17.83
2019-02-12T03:12:16.688Z,21.00
2019-02-12T03:14:21.814Z,22.27
2019-02-12T03:16:26.935Z,24.80
2019-02-12T03:18:32.039Z,26.30
2019-02-12T03:20:36.797Z,32.50
2019-02-12T03:22:41.506Z,18.43
2019-02-12T03:24:46.408Z,30.13
2019-02-12T03:26:52.037Z,29.33
2019-02-12T03:28:57.299Z,16.07
2019-02-12T03:31:03.082Z,25.67
2019-02-12T03:33:08.789Z,19.57
2019-02-12T03:35:14.215Z,19.60
2019-02-12T03:37:19.001Z,33.40
2019-02-12T03:39:23.689Z,22.80
2019-02-12T03:41:28.469Z,25.27
2019-02-12T03:43:33.557Z,16.93
2019-02-12T03:45:38.359Z,22.77
2019-02-12T03:47:43.511Z,27.03
2019-02-12T03:49:48.924Z,30.87
2019-02-12T03:51:53.812Z,33.13
2019-02-12T03:53:58.630Z,29.13
2019-02-12T03:56:03.410Z,29.33
2019-02-12T03:58:10.323Z,24.07
2019-02-12T04:00:15.976Z,29.90
2019-02-12T04:02:20.718Z,14.60
2019-02-12T04:04:25.620Z,30.43
2019-02-12T04:06:30.911Z,29.30
2019-02-12T04:08:36.076Z,22.93
2019-02-12T04:10:40.975Z,31.07
2019-02-12T04:12:45.789Z,35.43
2019-02-12T04:14:50.840Z,21.40
2019-02-12T04:16:56.576Z,23.60
2019-02-12T04:19:01.776Z,23.47
2019-02-12T04:21:06.810Z,32.37
2019-02-12T04:23:11.935Z,29.63
2019-02-12T04:25:16.806Z,23.07
2019-02-12T04:27:22.145Z,20.87
2019-02-12T04:29:27.075Z,20.73
2019-02-12T04:31:32.423Z,25.27
2019-02-12T04:33:37.966Z,24.63
2019-02-12T04:35:42.890Z,18.97
2019-02-12T04:37:47.874Z,35.43
2019-02-12T04:39:52.835Z,16.13
2019-02-12T04:41:57.573Z,28.90
2019-02-12T04:44:02.759Z,20.33
2019-02-12T04:46:07.510Z,30.27
2019-02-12T04:48:24.095Z,29.03
2019-02-12T04:50:29.274Z,27.17
2019-02-12T04:52:34.030Z,25.37
2019-02-12T04:54:38.882Z,27.67
2019-02-12T04:56:43.701Z,31.93
2019-02-12T04:58:48.472Z,33.20
2019-02-12T05:00:53.609Z,27.13
2019-02-12T05:02:58.435Z,22.17
2019-02-12T05:05:03.182Z,29.87
2019-02-12T05:07:08.317Z,23.40
2019-02-12T05:09:23.078Z,24.13
2019-02-12T05:11:27.864Z,19.87
2019-02-12T05:13:33.072Z,34.70
2019-02-12T05:15:37.849Z,27.83
2019-02-12T05:17:42.733Z,39.17
2019-02-12T05:19:48.219Z,25.70
2019-02-12T05:21:53.354Z,28.63
2019-02-12T05:23:59.166Z,25.93
2019-02-12T05:26:04.250Z,24.57
2019-02-12T05:28:10.573Z,29.50
2019-02-12T05:30:15.567Z,24.73
2019-02-12T05:32:20.431Z,23.73
2019-02-12T05:34:25.267Z,24.20
2019-02-12T05:36:30.736Z,28.87
2019-02-12T05:38:35.519Z,23.07
2019-02-12T05:41:00.461Z,36.40
2019-02-12T05:43:29.863Z,17.13
2019-02-12T05:45:34.383Z,27.80
2019-02-12T05:47:39.715Z,26.90
2019-02-12T05:49:45.347Z,28.80
2019-02-12T05:51:50.294Z,31.57
2019-02-12T05:53:55.174Z,33.10
2019-02-12T05:56:00.458Z,26.23
2019-02-12T05:58:05.485Z,27.97
2019-02-12T06:00:12.749Z,26.70
2019-02-12T06:03:08.143Z,32.37
2019-02-12T06:08:36.060Z,22.17
2019-02-12T06:11:17.789Z,21.60
2019-02-12T06:13:45.192Z,29.87
2019-02-12T06:40:34.657Z,22.53
2019-02-12T08:21:12.937Z,40.07
2019-02-12T08:23:41.448Z,24.03
2019-02-12T08:51:31.863Z,31.17
2019-02-12T08:54:21.259Z,22.40
2019-02-12T09:15:38.562Z,27.70
2019-02-12T12:03:33.246Z,36.23
2019-02-12T12:15:17.052Z,62.80
2019-02-12T12:30:00.612Z,27.63
2019-02-12T12:39:07.426Z,22.33
2019-02-12T12:47:49.111Z,24.40
2019-02-12T12:50:12.180Z,18.97
2019-02-12T12:52:18.465Z,27.90
2019-02-12T12:54:23.485Z,21.80
2019-02-12T12:56:31.111Z,18.77
2019-02-12T12:58:36.343Z,20.73
2019-02-12T13:00:41.188Z,20.60
2019-02-12T13:02:46.359Z,25.07
2019-02-12T13:04:51.226Z,21.40
2019-02-12T13:06:56.934Z,21.70
2019-02-12T13:09:02.006Z,20.77
2019-02-12T13:11:06.832Z,19.50
2019-02-12T13:13:12.541Z,23.00
2019-02-12T13:15:17.606Z,22.63
2019-02-12T13:17:23.025Z,26.03
2019-02-12T13:19:28.253Z,24.80
2019-02-12T13:21:33.616Z,27.03
2019-02-12T13:23:38.436Z,26.43
2019-02-12T13:25:43.521Z,29.40
2019-02-12T13:27:48.321Z,28.00
2019-02-12T13:29:53.623Z,22.03
2019-02-12T13:31:58.418Z,26.87
2019-02-12T13:34:03.547Z,24.00
2019-02-12T13:36:09.003Z,22.00
2019-02-12T13:38:16.457Z,22.30
2019-02-12T13:40:26.508Z,17.17
2019-02-12T13:42:31.401Z,20.87
2019-02-12T13:44:37.389Z,29.37
2019-02-12T13:46:42.254Z,37.47
2019-02-12T13:48:52.683Z,27.30
2019-02-12T13:50:57.679Z,24.30
2019-02-12T13:53:16.314Z,40.53
2019-02-12T13:55:24.176Z,32.77
2019-02-12T13:57:29.383Z,29.57
2019-02-12T13:59:35.279Z,23.70
2019-02-12T14:01:40.567Z,28.17
2019-02-12T14:03:46.634Z,19.50
2019-02-12T14:05:53.218Z,18.47
2019-02-12T14:07:58.049Z,19.87
2019-02-12T14:10:05.878Z,24.53
2019-02-12T14:12:56.706Z,16.17
2019-02-12T14:15:35.859Z,21.23
2019-02-12T14:18:39.195Z,19.53
2019-02-12T14:20:53.823Z,18.23
2019-02-12T14:23:16.552Z,19.27
2019-02-12T14:25:25.577Z,21.63
2019-02-12T14:30:49.958Z,21.30
2019-02-12T14:32:58.604Z,24.07
2019-02-12T14:35:03.431Z,18.23
2019-02-12T14:37:08.687Z,18.17
2019-02-12T14:39:13.475Z,18.67
2019-02-12T14:41:18.602Z,20.67
2019-02-12T14:43:23.368Z,18.80
2019-02-12T14:45:28.165Z,18.60
2019-02-12T14:47:33.128Z,18.97
2019-02-12T14:49:39.304Z,19.53
2019-02-12T14:51:44.445Z,20.03
2019-02-12T14:53:49.406Z,25.80
2019-02-12T14:55:55.031Z,16.40
2019-02-12T14:57:59.845Z,16.50
2019-02-12T15:00:05.465Z,20.70
2019-02-12T15:02:10.924Z,20.33
2019-02-12T15:05:20.374Z,17.57
2019-02-12T15:08:09.418Z,20.73
2019-02-12T15:13:35.068Z,24.20
2019-02-12T15:15:40.164Z,21.97
2019-02-12T15:17:45.082Z,18.50
2019-02-12T15:19:50.214Z,15.93
2019-02-12T15:21:55.830Z,22.20
2019-02-12T15:24:01.223Z,20.90
2019-02-12T15:26:06.047Z,23.23
2019-02-12T15:28:18.226Z,18.37
2019-02-12T15:30:23.190Z,19.20
2019-02-12T15:32:28.828Z,20.83
2019-02-12T15:34:33.700Z,18.60
2019-02-12T15:36:38.718Z,14.60
2019-02-12T15:38:43.671Z,15.97
2019-02-12T15:40:54.641Z,23.30
2019-02-12T15:43:00.023Z,28.03
2019-02-12T15:45:06.165Z,22.80
2019-02-12T15:47:12.508Z,19.77
2019-02-12T15:49:20.406Z,18.10
2019-02-12T15:51:30.774Z,20.93
2019-02-12T15:53:38.310Z,19.30
2019-02-12T15:55:50.964Z,19.37
2019-02-12T15:57:50.061Z,21.27
2019-02-12T16:00:00.134Z,20.63
2019-02-12T16:02:06.583Z,25.57
2019-02-12T16:04:11.342Z,24.97
2019-02-12T16:06:17.716Z,23.17
2019-02-12T16:08:22.818Z,19.10
2019-02-12T16:10:27.944Z,20.70
2019-02-12T16:12:56.114Z,22.30
2019-02-12T16:15:13.022Z,22.40
2019-02-12T16:17:18.313Z,23.00
2019-02-12T16:19:23.660Z,23.07
2019-02-12T16:21:29.344Z,26.00
2019-02-12T16:23:34.681Z,40.23
2019-02-12T16:25:39.476Z,56.10
2019-02-12T16:27:45.013Z,54.57
2019-02-12T16:29:50.286Z,37.93
2019-02-12T16:31:56.459Z,37.17
2019-02-12T16:34:01.254Z,24.67
2019-02-12T16:36:06.116Z,33.13
2019-02-12T16:38:11.689Z,25.10
2019-02-12T16:40:16.502Z,30.53
2019-02-12T16:42:21.384Z,24.20
2019-02-12T16:44:26.697Z,26.63
2019-02-12T16:46:32.244Z,25.83
2019-02-12T16:48:37.063Z,21.23
2019-02-12T16:50:42.027Z,21.70
2019-02-12T16:52:46.848Z,26.17
2019-02-12T16:54:51.818Z,22.87
2019-02-12T16:56:57.956Z,16.57
2019-02-12T16:59:03.920Z,19.17
2019-02-12T17:01:08.908Z,20.53
2019-02-12T17:03:14.208Z,23.93
2019-02-12T17:05:19.039Z,20.87
2019-02-12T17:10:15.788Z,16.67
2019-02-12T17:12:21.367Z,25.20
2019-02-12T17:14:26.207Z,24.70
2019-02-12T17:16:31.321Z,29.60
2019-02-12T17:18:36.712Z,29.20
2019-02-12T17:20:41.524Z,29.03
2019-02-12T17:22:46.347Z,30.73
2019-02-12T17:24:51.311Z,28.07
2019-02-12T17:26:56.417Z,33.90
2019-02-12T17:29:01.910Z,26.03
2019-02-12T17:31:08.039Z,26.30
2019-02-12T17:33:12.819Z,29.77
2019-02-12T17:35:18.540Z,24.03
2019-02-12T17:37:24.377Z,38.23
2019-02-12T17:39:29.334Z,32.03
2019-02-12T17:41:36.440Z,33.73
2019-02-12T17:43:42.855Z,30.80
2019-02-12T17:45:47.862Z,23.93
2019-02-12T17:47:52.722Z,26.07
2019-02-12T17:49:58.136Z,22.67
2019-02-12T17:52:03.291Z,22.03
2019-02-12T17:54:09.786Z,25.50
2019-02-12T17:56:15.049Z,21.70
2019-02-12T17:58:20.254Z,22.57
2019-02-12T18:00:27.484Z,18.47
2019-02-12T18:02:33.491Z,18.60
2019-02-12T18:04:38.708Z,24.80
2019-02-12T18:06:43.519Z,20.13
2019-02-12T18:08:48.696Z,18.13
2019-02-12T18:10:53.510Z,20.03
2019-02-12T18:13:05.944Z,19.97
2019-02-12T18:15:51.450Z,19.47
2019-02-12T18:17:57.975Z,19.07
2019-02-12T18:20:03.129Z,23.67
2019-02-12T18:22:08.337Z,18.30
2019-02-12T18:24:13.149Z,22.37
2019-02-12T18:26:17.914Z,23.23
2019-02-12T18:28:23.987Z,18.17
2019-02-12T18:30:28.960Z,19.27
2019-02-12T18:32:35.095Z,16.90
2019-02-12T18:34:42.078Z,20.57
2019-02-12T18:36:47.117Z,17.70
2019-02-12T18:38:52.033Z,23.93
2019-02-12T18:40:56.989Z,24.50
2019-02-12T18:43:02.580Z,19.00
2019-02-12T18:45:09.148Z,21.73
2019-02-12T18:47:13.898Z,20.20
2019-02-12T18:49:19.305Z,18.77
2019-02-12T18:51:25.278Z,21.20
2019-02-12T18:53:30.484Z,22.57
2019-02-12T18:55:36.478Z,21.80
2019-02-12T18:57:44.264Z,21.17
2019-02-12T18:59:49.256Z,20.63
2019-02-12T19:01:54.224Z,21.87
2019-02-12T19:03:59.007Z,28.57
2019-02-12T19:06:08.357Z,23.03
2019-02-12T19:08:13.481Z,20.60
2019-02-12T19:10:18.736Z,19.60
2019-02-12T19:12:23.637Z,22.90
2019-02-12T19:14:28.565Z,21.93
2019-02-12T19:16:35.473Z,19.73
2019-02-12T19:18:40.914Z,77.17
2019-02-12T19:21:24.854Z,34.90
2019-02-12T19:23:29.630Z,51.67
2019-02-12T19:25:34.397Z,40.37
2019-02-12T19:27:39.351Z,21.83
2019-02-12T19:29:44.126Z,23.80
2019-02-12T19:31:49.193Z,24.10
2019-02-12T19:33:54.116Z,21.30
2019-02-12T19:35:59.618Z,19.73
2019-02-12T19:38:04.645Z,21.67
2019-02-12T19:40:10.118Z,21.70
2019-02-12T19:42:15.015Z,29.23
2019-02-12T19:44:20.154Z,27.63
2019-02-12T19:46:25.721Z,24.23
2019-02-12T19:48:30.524Z,24.40
2019-02-12T19:50:35.306Z,22.93
2019-02-12T19:52:41.047Z,26.20
2019-02-12T19:54:45.850Z,25.30
2019-02-12T19:56:58.077Z,24.53
2019-02-12T19:58:58.339Z,24.30
2019-02-12T20:01:03.283Z,27.20
2019-02-12T20:03:08.148Z,24.37
2019-02-12T20:05:13.192Z,25.30
2019-02-12T20:07:18.026Z,27.47
2019-02-12T20:09:23.985Z,34.90
2019-02-12T20:11:29.107Z,24.10
2019-02-12T20:13:33.855Z,27.50
2019-02-12T20:15:38.735Z,22.97
2019-02-12T20:17:43.527Z,21.60
2019-02-12T20:19:48.636Z,21.70
2019-02-12T20:21:53.457Z,20.50
2019-02-12T20:23:58.260Z,20.87
2019-02-12T20:26:03.185Z,20.80
2019-02-12T20:28:08.081Z,26.73
2019-02-12T20:30:14.193Z,21.73
2019-02-12T20:32:19.411Z,32.43
2019-02-12T20:34:24.306Z,24.47
2019-02-12T20:36:30.034Z,21.87
2019-02-12T20:38:35.718Z,22.27
2019-02-12T20:40:41.397Z,22.03
2019-02-12T20:42:46.548Z,25.03
2019-02-12T20:44:51.866Z,20.77
2019-02-12T20:46:57.745Z,22.83
2019-02-12T20:49:02.641Z,23.83
2019-02-12T20:51:07.597Z,22.70
2019-02-12T20:53:12.815Z,21.30
2019-02-12T20:55:27.636Z,22.77
2019-02-12T20:57:33.463Z,24.10
2019-02-12T20:59:38.326Z,23.60
2019-02-12T21:01:43.191Z,22.33
2019-02-12T21:03:48.556Z,25.20
2019-02-12T21:05:53.494Z,21.37
2019-02-12T21:07:58.894Z,23.50
2019-02-12T21:10:04.313Z,26.47
2019-02-12T21:12:10.238Z,24.87
2019-02-12T21:14:16.282Z,23.90
2019-02-12T21:16:22.709Z,29.97
2019-02-12T21:18:27.972Z,24.93
2019-02-12T21:20:32.856Z,24.57
2019-02-12T21:22:38.282Z,25.70
2019-02-12T21:24:43.290Z,24.60
2019-02-12T21:26:48.514Z,24.10
2019-02-12T21:28:53.407Z,22.30
2019-02-12T21:30:58.373Z,21.20
2019-02-12T21:33:03.658Z,25.03
2019-02-12T21:35:09.622Z,23.40
2019-02-12T21:37:14.572Z,23.53
2019-02-12T21:39:22.155Z,22.63
2019-02-12T21:41:29.239Z,24.73
2019-02-12T21:43:34.188Z,28.03
2019-02-12T21:45:39.541Z,47.73
2019-02-12T21:47:46.117Z,96.63
2019-02-12T21:49:51.196Z,183.63
2019-02-12T21:51:56.228Z,169.47
2019-02-12T21:54:01.166Z,284.90
2019-02-12T21:56:06.890Z,81.47
2019-02-12T21:58:11.659Z,96.73
2019-02-12T22:00:16.700Z,59.03
2019-02-12T22:02:21.904Z,60.27
2019-02-12T22:04:26.651Z,27.13
2019-02-12T22:06:31.447Z,54.17
2019-02-12T22:08:36.293Z,41.97
2019-02-12T22:10:46.444Z,32.20
2019-02-12T22:12:47.980Z,31.67
2019-02-12T22:14:52.983Z,29.93
2019-02-12T22:16:57.778Z,23.47
2019-02-12T22:19:02.571Z,30.47
2019-02-12T22:21:07.484Z,28.53
2019-02-12T22:23:12.239Z,23.93
2019-02-12T22:25:17.793Z,23.87
2019-02-12T22:27:22.729Z,31.73
2019-02-12T22:29:27.903Z,24.90
2019-02-12T22:31:32.686Z,23.87
2019-02-12T22:33:37.574Z,22.73
2019-02-12T22:35:45.090Z,21.20
2019-02-12T22:37:49.946Z,27.33
2019-02-12T22:39:54.732Z,23.00
2019-02-12T22:42:00.105Z,23.40
2019-02-12T22:44:04.870Z,21.70
2019-02-12T22:46:09.725Z,25.20
2019-02-12T22:48:14.725Z,24.00
2019-02-12T22:50:20.167Z,25.30
2019-02-12T22:52:25.527Z,24.90
2019-02-12T22:54:30.412Z,25.60
2019-02-12T22:56:36.468Z,27.30
2019-02-12T22:58:41.584Z,22.87
2019-02-12T23:01:04.363Z,26.80
2019-02-12T23:03:09.644Z,33.40
2019-02-12T23:05:14.858Z,24.43
2019-02-12T23:07:22.245Z,33.47
2019-02-12T23:09:27.161Z,25.80
2019-02-12T23:11:32.145Z,37.07
2019-02-12T23:13:37.524Z,28.73
2019-02-12T23:15:42.880Z,33.60
2019-02-12T23:17:47.695Z,30.33
2019-02-12T23:19:53.130Z,30.70
2019-02-12T23:21:58.793Z,31.73
2019-02-12T23:24:03.768Z,24.33
2019-02-12T23:26:08.905Z,26.13
2019-02-12T23:28:13.867Z,25.53
2019-02-12T23:30:18.784Z,21.57
2019-02-12T23:32:23.730Z,23.10
2019-02-12T23:34:28.903Z,26.93
2019-02-12T23:36:34.737Z,27.20
2019-02-12T23:38:40.373Z,23.90
2019-02-12T23:40:45.731Z,25.83
2019-02-12T23:42:51.200Z,24.97
2019-02-12T23:44:56.171Z,22.87
2019-02-12T23:47:01.215Z,24.43
2019-02-12T23:49:06.519Z,24.23
2019-02-12T23:51:11.474Z,28.67
2019-02-12T23:53:16.426Z,29.53
2019-02-12T23:55:21.438Z,28.07
2019-02-12T23:57:26.366Z,23.80
2019-02-12T23:59:31.307Z,29.37
